King Gregory — SVBP8 — position and weather

sailwx.info

Track history (hours):
 
Tides and Currents Weather Stations Pressure Air Temp Water Temp Dewpoint Dewpoint Depression Visibility Wind Speed Wind Dir Waves Ship Positions

King Gregory

Last reported at 2017-Oct-18 09:28 UTC. Time now 2017-Oct-18 09:46 UTC.
Position N 24°07' E 118°31'.

Length 183 m; draft 12 m.

Type: Ship (hazmat cat B). MMSI: 241220000.

Date/timePositionNaut miles runAvg speedWind from/ knotsBaromVisibWave heightAir tempDewpointWater temp
2017-Oct-18 09:28N 24°07' E 118°31'510.8
2017-Oct-18 08:59N 24°03' E 118°28'4 8.9
2017-Oct-18 08:30N 23°59' E 118°26'2 3.3
2017-Oct-18 07:57N 24°01' E 118°24'5 2.2
2017-Oct-18 05:39N 24°05' E 118°27'1 2.9
2017-Oct-18 05:25N 24°06' E 118°28'1 2.9
2017-Oct-18 04:57N 24°07' E 118°28'1 2.8
2017-Oct-18 04:29N 24°08' E 118°29'0 0.8
2017-Oct-18 04:00N 24°08' E 118°29'4 8.2
2017-Oct-18 03:28N 24°04' E 118°26'4 9.4
2017-Oct-18 02:59N 24°01' E 118°22'5 9.7
2017-Oct-18 02:30N 23°57' E 118°19'1 0.1
2017-Oct-17 16:57N 23°57' E 118°18'2 3.1
2017-Oct-17 16:12N 23°59' E 118°19'1 3.3
2017-Oct-17 15:53N 23°60' E 118°20'4 3.4
2017-Oct-17 14:49N 24°03' E 118°22'1 3.2
2017-Oct-17 14:30N 24°03' E 118°23'3 3.2
2017-Oct-17 13:43N 24°05' E 118°25'1 3.3
2017-Oct-17 13:30N 24°06' E 118°25'2 3.2
2017-Oct-17 12:44N 24°07' E 118°28'3 2.6
2017-Oct-17 11:42N 24°09' E 118°30'2 6.1
2017-Oct-17 11:20N 24°10' E 118°28'3 9.5
2017-Oct-17 11:00N 24°08' E 118°25'5 9.7
2017-Oct-17 10:30N 24°05' E 118°21'5 9.3
2017-Oct-17 10:00N 24°02' E 118°17'5 1.7
2017-Oct-17 07:07N 23°57' E 118°16'1 2.6
2017-Oct-17 06:55N 23°57' E 118°16'1 2.8
2017-Oct-17 06:30N 23°58' E 118°17'2 3.1
2017-Oct-17 06:00N 23°59' E 118°18'2 3.2
2017-Oct-17 05:30N 24°01' E 118°19'1 2.1
2017-Oct-17 04:59N 24°02' E 118°20'3 6.0
2017-Oct-17 04:30N 24°01' E 118°17'3 5.4
2017-Oct-17 03:52N 23°60' E 118°13'0 0.6
2017-Oct-17 03:15N 23°59' E 118°13'1 3.2
2017-Oct-17 02:59N 24°00' E 118°14'1 2.9
2017-Oct-17 02:30N 24°01' E 118°15'1 2.7
2017-Oct-17 02:00N 24°02' E 118°16'1 2.4
2017-Oct-17 01:30N 24°03' E 118°17'0 1.0
2017-Oct-17 01:00N 24°03' E 118°17'6 9.9
2017-Oct-17 00:22N 23°58' E 118°14'  
2017-Oct-10 23:53N 01°15' E 103°54'0 0.0
2017-Oct-10 23:26N 01°15' E 103°54'0 0.0
2017-Oct-10 22:50N 01°15' E 103°54'0 0.7
2017-Oct-10 22:31N 01°15' E 103°54'2 4.5
2017-Oct-10 22:00N 01°16' E 103°56'2 3.2
2017-Oct-10 21:30N 01°15' E 103°58'2 4.0
2017-Oct-10 21:00N 01°13' E 103°56'4 7.2
2017-Oct-10 20:31N 01°12' E 103°53'5 9.5
2017-Oct-10 20:01N 01°10' E 103°49'510.4
2017-Oct-10 19:30N 01°06' E 103°45'5 9.1
2017-Oct-10 18:59N 01°03' E 103°41'510.5
2017-Oct-10 18:29N 01°04' E 103°36'613.3
2017-Oct-10 18:00N 01°07' E 103°30'713.2
2017-Oct-10 17:29N 01°11' E 103°24'814.9
2017-Oct-10 16:59N 01°16' E 103°19'  
Track history (hours):
 
Tides and Currents Weather Stations Pressure Air Temp Water Temp Dewpoint Dewpoint Depression Visibility Wind Speed Wind Dir Waves Ship Positions

King Gregory

Last reported at 2017-Oct-18 09:28 UTC. Time now 2017-Oct-18 09:46 UTC.
Position N 24°07' E 118°31'.

Length 183 m; draft 12 m.

Type: Ship (hazmat cat B). MMSI: 241220000.

Date/timePositionNaut miles runAvg speedWind from/ knotsBaromVisibWave heightAir tempDewpointWater temp
2017-Oct-18 09:28N 24°07' E 118°31'510.8
2017-Oct-18 08:59N 24°03' E 118°28'4 8.9
2017-Oct-18 08:30N 23°59' E 118°26'2 3.3
2017-Oct-18 07:57N 24°01' E 118°24'5 2.2
2017-Oct-18 05:39N 24°05' E 118°27'1 2.9
2017-Oct-18 05:25N 24°06' E 118°28'1 2.9
2017-Oct-18 04:57N 24°07' E 118°28'1 2.8
2017-Oct-18 04:29N 24°08' E 118°29'0 0.8
2017-Oct-18 04:00N 24°08' E 118°29'4 8.2
2017-Oct-18 03:28N 24°04' E 118°26'4 9.4
2017-Oct-18 02:59N 24°01' E 118°22'5 9.7
2017-Oct-18 02:30N 23°57' E 118°19'1 0.1
2017-Oct-17 16:57N 23°57' E 118°18'2 3.1
2017-Oct-17 16:12N 23°59' E 118°19'1 3.3
2017-Oct-17 15:53N 23°60' E 118°20'4 3.4
2017-Oct-17 14:49N 24°03' E 118°22'1 3.2
2017-Oct-17 14:30N 24°03' E 118°23'3 3.2
2017-Oct-17 13:43N 24°05' E 118°25'1 3.3
2017-Oct-17 13:30N 24°06' E 118°25'2 3.2
2017-Oct-17 12:44N 24°07' E 118°28'3 2.6
2017-Oct-17 11:42N 24°09' E 118°30'2 6.1
2017-Oct-17 11:20N 24°10' E 118°28'3 9.5
2017-Oct-17 11:00N 24°08' E 118°25'5 9.7
2017-Oct-17 10:30N 24°05' E 118°21'5 9.3
2017-Oct-17 10:00N 24°02' E 118°17'5 1.7
2017-Oct-17 07:07N 23°57' E 118°16'1 2.6
2017-Oct-17 06:55N 23°57' E 118°16'1 2.8
2017-Oct-17 06:30N 23°58' E 118°17'2 3.1
2017-Oct-17 06:00N 23°59' E 118°18'2 3.2
2017-Oct-17 05:30N 24°01' E 118°19'1 2.1
2017-Oct-17 04:59N 24°02' E 118°20'3 6.0
2017-Oct-17 04:30N 24°01' E 118°17'3 5.4
2017-Oct-17 03:52N 23°60' E 118°13'0 0.6
2017-Oct-17 03:15N 23°59' E 118°13'1 3.2
2017-Oct-17 02:59N 24°00' E 118°14'1 2.9
2017-Oct-17 02:30N 24°01' E 118°15'1 2.7
2017-Oct-17 02:00N 24°02' E 118°16'1 2.4
2017-Oct-17 01:30N 24°03' E 118°17'0 1.0
2017-Oct-17 01:00N 24°03' E 118°17'6 9.9
2017-Oct-17 00:22N 23°58' E 118°14'  
2017-Oct-10 23:53N 01°15' E 103°54'0 0.0
2017-Oct-10 23:26N 01°15' E 103°54'0 0.0
2017-Oct-10 22:50N 01°15' E 103°54'0 0.7
2017-Oct-10 22:31N 01°15' E 103°54'2 4.5
2017-Oct-10 22:00N 01°16' E 103°56'2 3.2
2017-Oct-10 21:30N 01°15' E 103°58'2 4.0
2017-Oct-10 21:00N 01°13' E 103°56'4 7.2
2017-Oct-10 20:31N 01°12' E 103°53'5 9.5
2017-Oct-10 20:01N 01°10' E 103°49'510.4
2017-Oct-10 19:30N 01°06' E 103°45'5 9.1
2017-Oct-10 18:59N 01°03' E 103°41'510.5
2017-Oct-10 18:29N 01°04' E 103°36'613.3
2017-Oct-10 18:00N 01°07' E 103°30'713.2
2017-Oct-10 17:29N 01°11' E 103°24'814.9
2017-Oct-10 16:59N 01°16' E 103°19'  

Dump ship's entire track history